Terminal Aerodrome Forecast
Issued by NWS

Home | Current Version | Previous Version | Text Only | Print | Product List | Glossary On
Versions: 1 2 3 4 5 6 7 8 9 10 11 12 13 14 15 16
000
FTUS45 KABQ 310500 RRA
TAFAEG
TAF
KAEG 310543Z 3106/0106 36006KT 6SM -SN SCT005 OVC015
      TEMPO 3108/3112 2SM -SN BR BKN005 OVC010
     FM311200 03006KT 5SM -SN BR OVC015
     FM311800 VRB04KT P6SM VCSH OVC025
     FM312200 26007KT 5SM -RA BKN020 OVC050=

USA.gov is the U.S. government's official web portal to all federal, state and local government web resources and services.